createdAt,value
2017-08-01T16:01:44.712Z,-84
2017-08-01T16:05:03.754Z,-84
2017-08-01T16:08:04.890Z,-84
2017-08-01T16:09:33.084Z,-82
2017-08-01T16:10:55.621Z,-82
2017-08-01T16:12:22.512Z,-80
2017-08-01T16:14:01.051Z,-82
2017-08-01T16:15:36.700Z,-80
2017-08-01T16:17:01.011Z,-80
2017-08-01T16:18:38.839Z,-82
2017-08-01T16:20:09.139Z,-90
2017-08-01T16:21:29.142Z,-86
2017-08-01T16:22:55.178Z,-88
2017-08-01T16:24:24.141Z,-82
2017-08-01T16:25:48.815Z,-82
2017-08-01T16:27:18.015Z,-86
2017-08-01T16:28:41.273Z,-86
2017-08-01T16:30:07.358Z,-86
2017-08-01T16:31:37.085Z,-86
2017-08-01T16:32:58.733Z,-84
2017-08-01T16:34:23.057Z,-82
2017-08-01T16:45:46.697Z,-74
2017-08-01T16:47:12.452Z,-76
2017-08-01T16:48:34.474Z,-74
2017-08-01T16:49:58.343Z,-74
2017-08-01T16:51:21.879Z,-76
2017-08-01T16:52:44.290Z,-76
2017-08-01T16:54:05.964Z,-76
2017-08-01T16:55:28.852Z,-84
2017-08-01T16:56:53.471Z,-86
2017-08-01T16:58:13.580Z,-86
2017-08-01T16:59:43.259Z,-82
2017-08-01T17:01:14.144Z,-82
2017-08-01T17:02:37.399Z,-82
2017-08-01T17:04:08.024Z,-84
2017-08-01T17:05:29.320Z,-88
2017-08-01T17:06:49.515Z,-86
2017-08-01T17:08:14.939Z,-86
2017-08-01T17:09:44.850Z,-84
2017-08-01T17:11:15.339Z,-84
2017-08-01T17:12:39.699Z,-86
2017-08-01T17:14:07.109Z,-86
2017-08-01T17:15:27.869Z,-86
2017-08-01T17:16:48.046Z,-86
2017-08-01T17:18:08.217Z,-86
2017-08-01T17:19:37.741Z,-84
2017-08-01T17:21:06.073Z,-84
2017-08-01T17:22:31.128Z,-86
2017-08-01T17:24:03.501Z,-86
2017-08-01T17:25:19.117Z,-86
2017-08-01T17:26:50.204Z,-86
2017-08-01T17:28:14.701Z,-86
2017-08-01T17:29:41.079Z,-86
2017-08-01T17:31:02.376Z,-84
2017-08-01T17:32:26.293Z,-86
2017-08-01T17:33:47.971Z,-86
2017-08-01T17:35:11.137Z,-86
2017-08-01T17:36:40.832Z,-86
2017-08-01T17:38:05.052Z,-86
2017-08-01T17:39:28.360Z,-86
2017-08-01T17:41:02.075Z,-84
2017-08-01T17:41:45.127Z,-84
2017-08-01T17:43:11.480Z,-86
2017-08-01T17:44:34.878Z,-88
2017-08-01T17:46:00.508Z,-86
2017-08-01T17:47:22.287Z,-86
2017-08-01T17:48:44.202Z,-84
2017-08-01T17:50:07.289Z,-88
2017-08-01T17:51:28.347Z,-84
2017-08-01T17:53:00.418Z,-84
2017-08-01T17:54:21.192Z,-84
2017-08-01T17:55:46.935Z,-84
2017-08-01T17:57:20.773Z,-84
2017-08-01T17:58:48.538Z,-84
2017-08-01T18:00:13.053Z,-86
2017-08-01T18:01:38.721Z,-90
2017-08-01T18:03:03.077Z,-86
2017-08-01T18:04:32.232Z,-88
2017-08-01T18:05:54.359Z,-88
2017-08-01T18:07:31.398Z,-90
2017-08-01T18:08:59.762Z,-88
2017-08-01T18:10:28.056Z,-88
2017-08-01T18:53:42.593Z,-80
2017-08-01T18:55:14.417Z,-80
2017-08-01T18:56:42.348Z,-80
2017-08-01T18:58:06.075Z,-82
2017-08-01T18:59:29.819Z,-82
2017-08-01T19:00:52.332Z,-82
2017-08-01T19:02:16.237Z,-80
2017-08-01T19:03:46.489Z,-78
2017-08-01T19:05:15.088Z,-80
2017-08-01T19:06:41.837Z,-82
2017-08-01T19:08:14.707Z,-80
2017-08-01T19:09:45.923Z,-80
2017-08-01T19:11:15.677Z,-80
2017-08-01T19:12:38.772Z,-82
2017-08-01T19:14:02.399Z,-82
2017-08-01T19:15:31.883Z,-82
2017-08-01T19:17:04.916Z,-80
2017-08-01T19:18:37.187Z,-80
2017-08-01T19:20:05.625Z,-80
2017-08-01T19:21:36.810Z,-78
2017-08-01T19:23:05.361Z,-78
2017-08-01T19:24:32.739Z,-78
2017-08-01T19:25:55.951Z,-78
2017-08-01T19:27:21.698Z,-78
2017-08-01T19:28:42.624Z,-78
2017-08-01T19:30:03.251Z,-78
2017-08-01T19:31:27.718Z,-76
2017-08-01T19:32:50.054Z,-76
2017-08-01T19:34:13.275Z,-76
2017-08-01T19:35:38.736Z,-76
2017-08-01T19:37:12.905Z,-76
2017-08-01T19:38:34.966Z,-76
2017-08-01T19:39:58.603Z,-76
2017-08-01T19:41:23.070Z,-76
2017-08-01T19:42:45.147Z,-76
2017-08-01T19:44:11.319Z,-76
2017-08-01T19:45:42.554Z,-76
2017-08-01T19:47:05.316Z,-76
2017-08-01T19:48:35.736Z,-76
2017-08-01T19:49:59.616Z,-76
2017-08-01T19:51:22.833Z,-76
2017-08-01T19:52:47.335Z,-76
2017-08-01T19:54:08.556Z,-76
2017-08-01T19:55:32.108Z,-76
2017-08-01T19:56:57.987Z,-76
2017-08-01T19:58:24.684Z,-76
2017-08-01T19:59:49.656Z,-76
2017-08-01T20:01:13.053Z,-76
2017-08-01T20:02:41.691Z,-76
2017-08-01T20:04:04.998Z,-78
2017-08-01T20:05:26.367Z,-76
2017-08-01T20:06:48.559Z,-78
2017-08-01T20:08:12.167Z,-76
2017-08-01T20:09:33.130Z,-76
2017-08-01T20:11:05.102Z,-78
2017-08-01T20:12:29.608Z,-78
2017-08-01T20:13:52.365Z,-78
2017-08-01T20:15:20.234Z,-80
2017-08-01T20:16:53.315Z,-80
2017-08-01T20:18:20.945Z,-80
2017-08-01T20:19:43.833Z,-80
2017-08-01T20:21:09.414Z,-80
2017-08-01T20:22:33.651Z,-80
2017-08-01T20:24:06.608Z,-80
2017-08-01T20:25:28.995Z,-76
2017-08-01T20:26:50.409Z,-76
2017-08-01T20:28:14.066Z,-76
2017-08-01T20:29:34.762Z,-76
2017-08-01T20:30:57.787Z,-76
2017-08-01T20:32:23.737Z,-76
2017-08-01T20:33:50.137Z,-74
2017-08-01T20:35:11.581Z,-74
2017-08-01T20:36:34.696Z,-76
